sensor_id;sensor_type;location;lat;lon;timestamp;P1;durP1;ratioP1;P2;durP2;ratioP2
74922;SDS011;64715;44.760;37.678;2023-03-23T00:00:43;19.13;;;6.63;;
74922;SDS011;64715;44.760;37.678;2023-03-23T00:01:44;18.33;;;6.97;;
74922;SDS011;64715;44.760;37.678;2023-03-23T00:02:45;20.08;;;7.38;;
74922;SDS011;64715;44.760;37.678;2023-03-23T00:03:47;20.38;;;7.57;;
74922;SDS011;64715;44.760;37.678;2023-03-23T00:04:50;20.17;;;7.38;;
74922;SDS011;64715;44.760;37.678;2023-03-23T00:05:51;17.40;;;6.97;;
74922;SDS011;64715;44.760;37.678;2023-03-23T00:06:52;17.63;;;7.00;;
74922;SDS011;64715;44.760;37.678;2023-03-23T00:07:53;19.52;;;7.35;;
74922;SDS011;64715;44.760;37.678;2023-03-23T00:08:55;18.25;;;7.03;;
74922;SDS011;64715;44.760;37.678;2023-03-23T00:09:59;18.50;;;7.00;;
74922;SDS011;64715;44.760;37.678;2023-03-23T00:11:02;19.95;;;7.47;;
74922;SDS011;64715;44.760;37.678;2023-03-23T00:12:07;19.10;;;7.35;;
74922;SDS011;64715;44.760;37.678;2023-03-23T00:13:08;18.60;;;7.18;;
74922;SDS011;64715;44.760;37.678;2023-03-23T00:14:11;23.27;;;7.40;;
74922;SDS011;64715;44.760;37.678;2023-03-23T00:15:15;20.50;;;7.80;;
74922;SDS011;64715;44.760;37.678;2023-03-23T00:16:17;20.55;;;7.35;;
74922;SDS011;64715;44.760;37.678;2023-03-23T00:17:19;19.30;;;7.35;;
74922;SDS011;64715;44.760;37.678;2023-03-23T00:18:20;17.70;;;7.07;;
74922;SDS011;64715;44.760;37.678;2023-03-23T00:19:22;20.58;;;7.30;;
74922;SDS011;64715;44.760;37.678;2023-03-23T00:20:23;21.02;;;7.60;;
74922;SDS011;64715;44.760;37.678;2023-03-23T00:21:25;22.42;;;7.43;;
74922;SDS011;64715;44.760;37.678;2023-03-23T00:22:34;21.27;;;7.60;;
74922;SDS011;64715;44.760;37.678;2023-03-23T00:23:39;21.43;;;7.80;;
74922;SDS011;64715;44.760;37.678;2023-03-23T00:24:41;19.98;;;7.55;;
74922;SDS011;64715;44.760;37.678;2023-03-23T00:25:42;20.25;;;7.70;;
74922;SDS011;64715;44.760;37.678;2023-03-23T00:26:46;22.23;;;8.20;;
74922;SDS011;64715;44.760;37.678;2023-03-23T00:27:48;21.23;;;7.57;;
74922;SDS011;64715;44.760;37.678;2023-03-23T00:28:49;24.33;;;7.75;;
74922;SDS011;64715;44.760;37.678;2023-03-23T00:29:51;19.40;;;7.70;;
74922;SDS011;64715;44.760;37.678;2023-03-23T00:30:56;20.67;;;7.43;;
74922;SDS011;64715;44.760;37.678;2023-03-23T00:31:58;21.37;;;7.53;;
74922;SDS011;64715;44.760;37.678;2023-03-23T00:32:59;19.57;;;7.67;;
74922;SDS011;64715;44.760;37.678;2023-03-23T00:34:00;22.05;;;7.75;;
74922;SDS011;64715;44.760;37.678;2023-03-23T00:35:04;19.63;;;7.85;;
74922;SDS011;64715;44.760;37.678;2023-03-23T00:36:10;19.15;;;7.78;;
74922;SDS011;64715;44.760;37.678;2023-03-23T00:37:12;22.40;;;7.38;;
74922;SDS011;64715;44.760;37.678;2023-03-23T00:38:13;18.15;;;7.05;;
74922;SDS011;64715;44.760;37.678;2023-03-23T00:39:14;22.65;;;7.18;;
74922;SDS011;64715;44.760;37.678;2023-03-23T00:40:17;20.17;;;7.40;;
74922;SDS011;64715;44.760;37.678;2023-03-23T00:41:18;19.00;;;7.30;;
74922;SDS011;64715;44.760;37.678;2023-03-23T00:42:21;20.48;;;7.65;;
74922;SDS011;64715;44.760;37.678;2023-03-23T00:43:23;17.85;;;7.70;;
74922;SDS011;64715;44.760;37.678;2023-03-23T00:44:24;19.83;;;7.20;;
74922;SDS011;64715;44.760;37.678;2023-03-23T00:45:25;23.45;;;7.38;;
74922;SDS011;64715;44.760;37.678;2023-03-23T00:46:27;26.17;;;7.88;;
74922;SDS011;64715;44.760;37.678;2023-03-23T00:47:28;20.80;;;7.35;;
74922;SDS011;64715;44.760;37.678;2023-03-23T00:48:31;20.70;;;7.07;;
74922;SDS011;64715;44.760;37.678;2023-03-23T00:49:33;19.67;;;7.57;;
74922;SDS011;64715;44.760;37.678;2023-03-23T00:50:35;21.13;;;7.15;;
74922;SDS011;64715;44.760;37.678;2023-03-23T00:51:36;20.98;;;7.78;;
74922;SDS011;64715;44.760;37.678;2023-03-23T00:52:36;21.60;;;7.55;;
74922;SDS011;64715;44.760;37.678;2023-03-23T00:53:38;20.25;;;7.38;;
74922;SDS011;64715;44.760;37.678;2023-03-23T00:54:40;21.02;;;7.90;;
74922;SDS011;64715;44.760;37.678;2023-03-23T00:55:42;22.30;;;7.43;;
74922;SDS011;64715;44.760;37.678;2023-03-23T00:56:44;19.60;;;7.77;;
74922;SDS011;64715;44.760;37.678;2023-03-23T00:57:45;19.88;;;7.68;;
74922;SDS011;64715;44.760;37.678;2023-03-23T00:58:46;22.25;;;7.97;;
74922;SDS011;64715;44.760;37.678;2023-03-23T00:59:47;21.55;;;8.00;;
74922;SDS011;64715;44.760;37.678;2023-03-23T01:00:48;19.00;;;7.75;;
74922;SDS011;64715;44.760;37.678;2023-03-23T01:01:49;26.25;;;9.05;;
74922;SDS011;64715;44.760;37.678;2023-03-23T01:02:52;20.30;;;7.70;;
74922;SDS011;64715;44.760;37.678;2023-03-23T01:03:53;20.73;;;8.18;;
74922;SDS011;64715;44.760;37.678;2023-03-23T01:05:00;17.60;;;7.20;;
74922;SDS011;64715;44.760;37.678;2023-03-23T01:06:08;19.87;;;7.97;;
74922;SDS011;64715;44.760;37.678;2023-03-23T01:07:16;18.85;;;7.22;;
74922;SDS011;64715;44.760;37.678;2023-03-23T01:08:18;23.58;;;8.13;;
74922;SDS011;64715;44.760;37.678;2023-03-23T01:09:20;22.50;;;8.38;;
74922;SDS011;64715;44.760;37.678;2023-03-23T01:10:24;22.05;;;7.88;;
74922;SDS011;64715;44.760;37.678;2023-03-23T01:11:26;21.05;;;8.18;;
74922;SDS011;64715;44.760;37.678;2023-03-23T01:12:28;23.05;;;8.35;;
74922;SDS011;64715;44.760;37.678;2023-03-23T01:13:30;22.77;;;8.05;;
74922;SDS011;64715;44.760;37.678;2023-03-23T01:14:31;22.98;;;7.93;;
74922;SDS011;64715;44.760;37.678;2023-03-23T01:15:33;20.97;;;7.97;;
74922;SDS011;64715;44.760;37.678;2023-03-23T01:16:34;20.88;;;7.88;;
74922;SDS011;64715;44.760;37.678;2023-03-23T01:17:35;21.02;;;8.13;;
74922;SDS011;64715;44.760;37.678;2023-03-23T01:18:36;23.05;;;8.38;;
74922;SDS011;64715;44.760;37.678;2023-03-23T01:19:40;21.63;;;7.93;;
74922;SDS011;64715;44.760;37.678;2023-03-23T01:20:42;21.48;;;8.25;;
74922;SDS011;64715;44.760;37.678;2023-03-23T01:21:43;22.70;;;8.57;;
74922;SDS011;64715;44.760;37.678;2023-03-23T01:22:45;22.40;;;8.98;;
74922;SDS011;64715;44.760;37.678;2023-03-23T01:23:46;23.87;;;8.20;;
74922;SDS011;64715;44.760;37.678;2023-03-23T01:24:48;20.83;;;9.00;;
74922;SDS011;64715;44.760;37.678;2023-03-23T01:25:49;23.25;;;8.45;;
74922;SDS011;64715;44.760;37.678;2023-03-23T01:26:50;21.85;;;8.80;;
74922;SDS011;64715;44.760;37.678;2023-03-23T01:27:51;20.55;;;8.35;;
74922;SDS011;64715;44.760;37.678;2023-03-23T01:28:52;22.67;;;8.30;;
74922;SDS011;64715;44.760;37.678;2023-03-23T01:29:53;25.17;;;9.15;;
74922;SDS011;64715;44.760;37.678;2023-03-23T01:30:59;22.70;;;8.82;;
74922;SDS011;64715;44.760;37.678;2023-03-23T01:32:02;25.77;;;9.00;;
74922;SDS011;64715;44.760;37.678;2023-03-23T01:33:03;22.70;;;8.13;;
74922;SDS011;64715;44.760;37.678;2023-03-23T01:34:04;24.38;;;8.30;;
74922;SDS011;64715;44.760;37.678;2023-03-23T01:35:06;23.20;;;8.18;;
74922;SDS011;64715;44.760;37.678;2023-03-23T01:36:09;26.23;;;8.65;;
74922;SDS011;64715;44.760;37.678;2023-03-23T01:37:13;23.92;;;8.63;;
74922;SDS011;64715;44.760;37.678;2023-03-23T01:38:17;26.55;;;8.60;;
74922;SDS011;64715;44.760;37.678;2023-03-23T01:39:18;23.15;;;8.77;;
74922;SDS011;64715;44.760;37.678;2023-03-23T01:40:19;24.13;;;9.10;;
74922;SDS011;64715;44.760;37.678;2023-03-23T01:41:21;24.33;;;9.10;;
74922;SDS011;64715;44.760;37.678;2023-03-23T01:42:31;23.93;;;8.37;;
74922;SDS011;64715;44.760;37.678;2023-03-23T01:43:35;26.05;;;8.35;;
74922;SDS011;64715;44.760;37.678;2023-03-23T01:45:40;27.58;;;8.38;;
74922;SDS011;64715;44.760;37.678;2023-03-23T01:46:42;23.63;;;9.00;;
74922;SDS011;64715;44.760;37.678;2023-03-23T01:47:43;25.88;;;9.38;;
74922;SDS011;64715;44.760;37.678;2023-03-23T01:48:44;20.45;;;8.65;;
74922;SDS011;64715;44.760;37.678;2023-03-23T01:49:46;24.08;;;8.90;;
74922;SDS011;64715;44.760;37.678;2023-03-23T01:50:54;25.73;;;9.07;;
74922;SDS011;64715;44.760;37.678;2023-03-23T01:52:00;23.55;;;9.02;;
74922;SDS011;64715;44.760;37.678;2023-03-23T01:53:06;22.53;;;8.87;;
74922;SDS011;64715;44.760;37.678;2023-03-23T01:54:11;24.20;;;9.20;;
74922;SDS011;64715;44.760;37.678;2023-03-23T01:55:14;30.70;;;9.27;;
74922;SDS011;64715;44.760;37.678;2023-03-23T01:56:17;24.58;;;9.18;;
74922;SDS011;64715;44.760;37.678;2023-03-23T01:57:25;22.58;;;8.68;;
74922;SDS011;64715;44.760;37.678;2023-03-23T01:58:30;29.65;;;9.07;;
74922;SDS011;64715;44.760;37.678;2023-03-23T01:59:34;25.60;;;9.13;;
74922;SDS011;64715;44.760;37.678;2023-03-23T02:00:56;23.85;;;9.25;;
74922;SDS011;64715;44.760;37.678;2023-03-23T02:02:02;23.73;;;10.20;;
74922;SDS011;64715;44.760;37.678;2023-03-23T02:03:05;28.25;;;10.05;;
74922;SDS011;64715;44.760;37.678;2023-03-23T02:04:09;26.53;;;9.13;;
74922;SDS011;64715;44.760;37.678;2023-03-23T02:05:12;23.50;;;8.57;;
74922;SDS011;64715;44.760;37.678;2023-03-23T02:06:20;23.75;;;9.07;;
74922;SDS011;64715;44.760;37.678;2023-03-23T02:07:44;22.08;;;9.23;;
74922;SDS011;64715;44.760;37.678;2023-03-23T02:08:47;29.20;;;9.18;;
74922;SDS011;64715;44.760;37.678;2023-03-23T02:09:50;24.10;;;9.60;;
74922;SDS011;64715;44.760;37.678;2023-03-23T02:10:52;25.45;;;8.90;;
74922;SDS011;64715;44.760;37.678;2023-03-23T02:11:53;26.92;;;9.20;;
74922;SDS011;64715;44.760;37.678;2023-03-23T02:12:56;24.30;;;8.70;;
74922;SDS011;64715;44.760;37.678;2023-03-23T02:13:57;28.85;;;9.77;;
74922;SDS011;64715;44.760;37.678;2023-03-23T02:14:59;27.67;;;9.60;;
74922;SDS011;64715;44.760;37.678;2023-03-23T02:16:04;24.50;;;10.00;;
74922;SDS011;64715;44.760;37.678;2023-03-23T02:17:36;24.38;;;8.55;;
74922;SDS011;64715;44.760;37.678;2023-03-23T02:18:53;25.63;;;8.82;;
74922;SDS011;64715;44.760;37.678;2023-03-23T02:23:00;26.80;;;8.63;;
74922;SDS011;64715;44.760;37.678;2023-03-23T02:27:02;25.58;;;9.32;;
74922;SDS011;64715;44.760;37.678;2023-03-23T02:31:18;26.00;;;9.32;;
74922;SDS011;64715;44.760;37.678;2023-03-23T02:35:00;27.58;;;9.88;;
74922;SDS011;64715;44.760;37.678;2023-03-23T02:37:36;28.85;;;10.23;;
74922;SDS011;64715;44.760;37.678;2023-03-23T02:40:06;27.33;;;9.85;;
74922;SDS011;64715;44.760;37.678;2023-03-23T02:41:12;27.57;;;9.37;;
74922;SDS011;64715;44.760;37.678;2023-03-23T02:42:17;24.75;;;10.40;;
74922;SDS011;64715;44.760;37.678;2023-03-23T02:43:24;27.65;;;9.90;;
74922;SDS011;64715;44.760;37.678;2023-03-23T02:44:26;27.67;;;10.15;;
74922;SDS011;64715;44.760;37.678;2023-03-23T02:45:31;27.35;;;10.38;;
74922;SDS011;64715;44.760;37.678;2023-03-23T02:46:35;27.25;;;9.43;;
74922;SDS011;64715;44.760;37.678;2023-03-23T02:47:37;26.77;;;9.98;;
74922;SDS011;64715;44.760;37.678;2023-03-23T02:48:40;27.25;;;9.90;;
74922;SDS011;64715;44.760;37.678;2023-03-23T02:49:42;26.70;;;9.82;;
74922;SDS011;64715;44.760;37.678;2023-03-23T02:50:47;26.25;;;10.15;;
74922;SDS011;64715;44.760;37.678;2023-03-23T02:51:51;24.23;;;10.13;;
74922;SDS011;64715;44.760;37.678;2023-03-23T02:52:55;29.57;;;10.43;;
74922;SDS011;64715;44.760;37.678;2023-03-23T02:53:58;26.95;;;10.02;;
74922;SDS011;64715;44.760;37.678;2023-03-23T02:55:00;28.13;;;10.68;;
74922;SDS011;64715;44.760;37.678;2023-03-23T02:56:02;24.77;;;10.18;;
74922;SDS011;64715;44.760;37.678;2023-03-23T02:57:05;28.83;;;10.35;;
74922;SDS011;64715;44.760;37.678;2023-03-23T02:58:09;25.38;;;9.65;;
74922;SDS011;64715;44.760;37.678;2023-03-23T02:59:10;25.98;;;10.15;;
74922;SDS011;64715;44.760;37.678;2023-03-23T03:00:12;31.55;;;10.43;;
74922;SDS011;64715;44.760;37.678;2023-03-23T03:02:27;29.00;;;10.50;;
74922;SDS011;64715;44.760;37.678;2023-03-23T03:03:29;27.93;;;10.33;;
74922;SDS011;64715;44.760;37.678;2023-03-23T03:04:31;27.27;;;10.73;;
74922;SDS011;64715;44.760;37.678;2023-03-23T03:05:40;27.33;;;10.35;;
74922;SDS011;64715;44.760;37.678;2023-03-23T03:06:55;28.00;;;10.65;;
74922;SDS011;64715;44.760;37.678;2023-03-23T03:10:29;25.52;;;9.65;;
74922;SDS011;64715;44.760;37.678;2023-03-23T03:11:37;29.63;;;10.45;;
74922;SDS011;64715;44.760;37.678;2023-03-23T03:14:53;30.07;;;9.53;;
74922;SDS011;64715;44.760;37.678;2023-03-23T03:15:48;25.90;;;10.97;;
74922;SDS011;64715;44.760;37.678;2023-03-23T03:18:47;27.80;;;10.88;;
74922;SDS011;64715;44.760;37.678;2023-03-23T03:19:57;25.70;;;10.43;;
74922;SDS011;64715;44.760;37.678;2023-03-23T03:21:09;29.85;;;11.18;;
74922;SDS011;64715;44.760;37.678;2023-03-23T03:22:14;30.73;;;10.95;;
74922;SDS011;64715;44.760;37.678;2023-03-23T03:23:17;26.67;;;10.38;;
74922;SDS011;64715;44.760;37.678;2023-03-23T03:24:22;26.65;;;10.57;;
74922;SDS011;64715;44.760;37.678;2023-03-23T03:25:25;29.25;;;10.75;;
74922;SDS011;64715;44.760;37.678;2023-03-23T03:26:30;25.83;;;10.20;;
74922;SDS011;64715;44.760;37.678;2023-03-23T03:27:54;27.65;;;9.82;;
74922;SDS011;64715;44.760;37.678;2023-03-23T03:29:18;23.92;;;9.85;;
74922;SDS011;64715;44.760;37.678;2023-03-23T03:30:26;29.02;;;10.43;;
74922;SDS011;64715;44.760;37.678;2023-03-23T03:31:34;24.42;;;10.07;;
74922;SDS011;64715;44.760;37.678;2023-03-23T03:32:46;22.80;;;9.32;;
74922;SDS011;64715;44.760;37.678;2023-03-23T03:33:51;26.27;;;10.63;;
74922;SDS011;64715;44.760;37.678;2023-03-23T03:34:53;25.92;;;10.02;;
74922;SDS011;64715;44.760;37.678;2023-03-23T03:35:54;27.63;;;10.25;;
74922;SDS011;64715;44.760;37.678;2023-03-23T03:36:57;25.67;;;10.13;;
74922;SDS011;64715;44.760;37.678;2023-03-23T03:38:04;26.77;;;10.40;;
74922;SDS011;64715;44.760;37.678;2023-03-23T03:39:08;28.02;;;10.25;;
74922;SDS011;64715;44.760;37.678;2023-03-23T03:40:12;25.17;;;9.88;;
74922;SDS011;64715;44.760;37.678;2023-03-23T03:41:18;26.10;;;10.68;;
74922;SDS011;64715;44.760;37.678;2023-03-23T03:42:21;27.58;;;10.23;;
74922;SDS011;64715;44.760;37.678;2023-03-23T03:43:22;24.98;;;9.68;;
74922;SDS011;64715;44.760;37.678;2023-03-23T03:44:23;26.25;;;10.82;;
74922;SDS011;64715;44.760;37.678;2023-03-23T03:45:23;27.25;;;10.68;;
74922;SDS011;64715;44.760;37.678;2023-03-23T03:46:25;27.93;;;10.03;;
74922;SDS011;64715;44.760;37.678;2023-03-23T03:47:30;28.63;;;9.60;;
74922;SDS011;64715;44.760;37.678;2023-03-23T03:48:31;27.58;;;10.43;;
74922;SDS011;64715;44.760;37.678;2023-03-23T03:49:32;24.88;;;8.90;;
74922;SDS011;64715;44.760;37.678;2023-03-23T03:50:34;24.98;;;9.13;;
74922;SDS011;64715;44.760;37.678;2023-03-23T03:51:35;25.88;;;9.55;;
74922;SDS011;64715;44.760;37.678;2023-03-23T03:52:39;26.73;;;9.82;;
74922;SDS011;64715;44.760;37.678;2023-03-23T03:53:41;29.17;;;10.95;;
74922;SDS011;64715;44.760;37.678;2023-03-23T03:54:42;25.05;;;9.07;;
74922;SDS011;64715;44.760;37.678;2023-03-23T03:55:44;26.02;;;9.75;;
74922;SDS011;64715;44.760;37.678;2023-03-23T03:56:47;25.37;;;9.90;;
74922;SDS011;64715;44.760;37.678;2023-03-23T03:58:06;26.90;;;10.33;;
74922;SDS011;64715;44.760;37.678;2023-03-23T03:59:28;31.55;;;10.57;;
74922;SDS011;64715;44.760;37.678;2023-03-23T04:01:04;28.70;;;11.00;;
74922;SDS011;64715;44.760;37.678;2023-03-23T04:02:09;30.30;;;10.77;;
74922;SDS011;64715;44.760;37.678;2023-03-23T04:03:15;26.23;;;10.60;;
74922;SDS011;64715;44.760;37.678;2023-03-23T04:04:33;25.88;;;10.02;;
74922;SDS011;64715;44.760;37.678;2023-03-23T04:05:35;26.38;;;10.10;;
74922;SDS011;64715;44.760;37.678;2023-03-23T04:06:38;23.98;;;9.30;;
74922;SDS011;64715;44.760;37.678;2023-03-23T04:07:39;29.98;;;10.25;;
74922;SDS011;64715;44.760;37.678;2023-03-23T04:08:42;28.30;;;9.73;;
74922;SDS011;64715;44.760;37.678;2023-03-23T04:09:46;25.03;;;10.50;;
74922;SDS011;64715;44.760;37.678;2023-03-23T04:10:49;22.70;;;9.77;;
74922;SDS011;64715;44.760;37.678;2023-03-23T04:11:52;27.65;;;10.18;;
74922;SDS011;64715;44.760;37.678;2023-03-23T04:13:16;24.83;;;9.65;;
74922;SDS011;64715;44.760;37.678;2023-03-23T04:14:34;25.25;;;9.82;;
74922;SDS011;64715;44.760;37.678;2023-03-23T04:15:35;27.52;;;9.77;;
74922;SDS011;64715;44.760;37.678;2023-03-23T04:16:37;22.85;;;9.15;;
74922;SDS011;64715;44.760;37.678;2023-03-23T04:17:38;23.52;;;9.50;;
74922;SDS011;64715;44.760;37.678;2023-03-23T04:18:41;25.27;;;9.65;;
74922;SDS011;64715;44.760;37.678;2023-03-23T04:19:43;29.20;;;9.50;;
74922;SDS011;64715;44.760;37.678;2023-03-23T04:20:48;28.48;;;9.73;;
74922;SDS011;64715;44.760;37.678;2023-03-23T04:21:52;24.55;;;9.85;;
74922;SDS011;64715;44.760;37.678;2023-03-23T04:22:53;26.25;;;9.25;;
74922;SDS011;64715;44.760;37.678;2023-03-23T04:23:57;27.08;;;9.60;;
74922;SDS011;64715;44.760;37.678;2023-03-23T04:25:00;24.85;;;9.77;;
74922;SDS011;64715;44.760;37.678;2023-03-23T04:26:07;21.88;;;8.90;;
74922;SDS011;64715;44.760;37.678;2023-03-23T04:27:14;24.83;;;10.07;;
74922;SDS011;64715;44.760;37.678;2023-03-23T04:28:16;23.75;;;8.93;;
74922;SDS011;64715;44.760;37.678;2023-03-23T04:29:37;23.45;;;9.35;;
74922;SDS011;64715;44.760;37.678;2023-03-23T04:31:04;25.30;;;8.73;;
74922;SDS011;64715;44.760;37.678;2023-03-23T04:32:05;23.57;;;9.37;;
74922;SDS011;64715;44.760;37.678;2023-03-23T04:33:12;26.02;;;8.52;;
74922;SDS011;64715;44.760;37.678;2023-03-23T04:34:20;23.02;;;8.68;;
74922;SDS011;64715;44.760;37.678;2023-03-23T04:35:24;24.50;;;8.80;;
74922;SDS011;64715;44.760;37.678;2023-03-23T04:36:39;22.65;;;8.77;;
74922;SDS011;64715;44.760;37.678;2023-03-23T04:37:48;25.27;;;8.93;;
74922;SDS011;64715;44.760;37.678;2023-03-23T04:38:53;25.92;;;9.00;;
74922;SDS011;64715;44.760;37.678;2023-03-23T04:39:56;30.08;;;9.40;;
74922;SDS011;64715;44.760;37.678;2023-03-23T04:41:03;22.77;;;9.13;;
74922;SDS011;64715;44.760;37.678;2023-03-23T04:42:28;25.43;;;9.20;;
74922;SDS011;64715;44.760;37.678;2023-03-23T04:43:32;26.53;;;9.33;;
74922;SDS011;64715;44.760;37.678;2023-03-23T04:45:05;21.05;;;8.60;;
74922;SDS011;64715;44.760;37.678;2023-03-23T04:46:10;24.60;;;9.07;;
74922;SDS011;64715;44.760;37.678;2023-03-23T04:47:13;22.05;;;8.70;;
74922;SDS011;64715;44.760;37.678;2023-03-23T04:48:27;22.77;;;9.10;;
74922;SDS011;64715;44.760;37.678;2023-03-23T04:49:41;21.75;;;9.27;;
74922;SDS011;64715;44.760;37.678;2023-03-23T04:50:53;25.02;;;9.63;;
74922;SDS011;64715;44.760;37.678;2023-03-23T04:51:59;23.38;;;9.35;;
74922;SDS011;64715;44.760;37.678;2023-03-23T04:53:24;23.75;;;8.48;;
74922;SDS011;64715;44.760;37.678;2023-03-23T04:54:26;23.50;;;8.83;;
74922;SDS011;64715;44.760;37.678;2023-03-23T04:55:31;23.63;;;9.20;;
74922;SDS011;64715;44.760;37.678;2023-03-23T04:56:36;23.48;;;9.00;;
74922;SDS011;64715;44.760;37.678;2023-03-23T04:57:44;22.88;;;9.13;;
74922;SDS011;64715;44.760;37.678;2023-03-23T04:59:03;22.40;;;8.52;;
74922;SDS011;64715;44.760;37.678;2023-03-23T05:00:19;23.23;;;9.05;;
74922;SDS011;64715;44.760;37.678;2023-03-23T05:01:24;22.77;;;8.20;;
74922;SDS011;64715;44.760;37.678;2023-03-23T05:02:44;20.88;;;8.98;;
74922;SDS011;64715;44.760;37.678;2023-03-23T05:03:54;22.02;;;9.15;;
74922;SDS011;64715;44.760;37.678;2023-03-23T05:04:56;18.60;;;8.10;;
74922;SDS011;64715;44.760;37.678;2023-03-23T05:06:01;23.33;;;8.50;;
74922;SDS011;64715;44.760;37.678;2023-03-23T05:07:04;21.83;;;8.83;;
74922;SDS011;64715;44.760;37.678;2023-03-23T05:08:09;22.02;;;8.55;;
74922;SDS011;64715;44.760;37.678;2023-03-23T05:09:13;22.77;;;8.40;;
74922;SDS011;64715;44.760;37.678;2023-03-23T05:10:15;24.55;;;8.82;;
74922;SDS011;64715;44.760;37.678;2023-03-23T05:11:18;22.20;;;9.15;;
74922;SDS011;64715;44.760;37.678;2023-03-23T05:12:19;24.13;;;9.48;;
74922;SDS011;64715;44.760;37.678;2023-03-23T05:13:40;21.52;;;8.00;;
74922;SDS011;64715;44.760;37.678;2023-03-23T05:14:43;20.02;;;7.82;;
74922;SDS011;64715;44.760;37.678;2023-03-23T05:15:48;24.67;;;8.60;;
74922;SDS011;64715;44.760;37.678;2023-03-23T05:16:49;20.47;;;8.03;;
74922;SDS011;64715;44.760;37.678;2023-03-23T05:17:53;22.33;;;8.50;;
74922;SDS011;64715;44.760;37.678;2023-03-23T05:18:56;24.00;;;8.50;;
74922;SDS011;64715;44.760;37.678;2023-03-23T05:20:02;23.02;;;8.38;;
74922;SDS011;64715;44.760;37.678;2023-03-23T05:21:18;20.95;;;8.48;;
74922;SDS011;64715;44.760;37.678;2023-03-23T05:22:28;23.70;;;7.70;;
74922;SDS011;64715;44.760;37.678;2023-03-23T05:23:33;19.08;;;8.02;;
74922;SDS011;64715;44.760;37.678;2023-03-23T05:24:47;20.92;;;8.30;;
74922;SDS011;64715;44.760;37.678;2023-03-23T05:25:54;19.48;;;8.38;;
74922;SDS011;64715;44.760;37.678;2023-03-23T05:26:58;23.60;;;8.00;;
74922;SDS011;64715;44.760;37.678;2023-03-23T05:28:06;21.02;;;7.90;;
74922;SDS011;64715;44.760;37.678;2023-03-23T05:29:30;21.27;;;8.10;;
74922;SDS011;64715;44.760;37.678;2023-03-23T05:30:34;19.50;;;7.78;;
74922;SDS011;64715;44.760;37.678;2023-03-23T05:31:36;21.02;;;8.18;;
74922;SDS011;64715;44.760;37.678;2023-03-23T05:32:38;20.63;;;7.95;;
74922;SDS011;64715;44.760;37.678;2023-03-23T05:34:00;20.42;;;7.90;;
74922;SDS011;64715;44.760;37.678;2023-03-23T05:35:18;21.13;;;7.82;;
74922;SDS011;64715;44.760;37.678;2023-03-23T05:36:20;19.67;;;8.18;;
74922;SDS011;64715;44.760;37.678;2023-03-23T05:37:41;21.90;;;7.75;;
74922;SDS011;64715;44.760;37.678;2023-03-23T05:38:45;20.77;;;7.68;;
74922;SDS011;64715;44.760;37.678;2023-03-23T05:39:51;20.45;;;7.88;;
74922;SDS011;64715;44.760;37.678;2023-03-23T05:41:12;18.27;;;7.83;;
74922;SDS011;64715;44.760;37.678;2023-03-23T05:42:15;19.70;;;7.45;;
74922;SDS011;64715;44.760;37.678;2023-03-23T05:43:37;19.88;;;7.22;;
74922;SDS011;64715;44.760;37.678;2023-03-23T05:45:02;21.52;;;7.60;;
74922;SDS011;64715;44.760;37.678;2023-03-23T05:46:06;20.75;;;7.45;;
74922;SDS011;64715;44.760;37.678;2023-03-23T05:47:08;20.38;;;7.95;;
74922;SDS011;64715;44.760;37.678;2023-03-23T05:48:12;18.92;;;8.13;;
74922;SDS011;64715;44.760;37.678;2023-03-23T05:49:16;20.75;;;7.20;;
74922;SDS011;64715;44.760;37.678;2023-03-23T05:50:18;19.02;;;7.65;;
74922;SDS011;64715;44.760;37.678;2023-03-23T05:51:19;18.80;;;8.50;;
74922;SDS011;64715;44.760;37.678;2023-03-23T05:52:22;22.07;;;8.17;;
74922;SDS011;64715;44.760;37.678;2023-03-23T05:53:24;19.38;;;7.63;;
74922;SDS011;64715;44.760;37.678;2023-03-23T05:54:27;17.35;;;7.50;;
74922;SDS011;64715;44.760;37.678;2023-03-23T05:55:28;19.38;;;7.80;;
74922;SDS011;64715;44.760;37.678;2023-03-23T05:56:48;18.40;;;7.43;;
74922;SDS011;64715;44.760;37.678;2023-03-23T05:58:09;18.15;;;8.27;;
74922;SDS011;64715;44.760;37.678;2023-03-23T05:59:16;17.88;;;7.65;;
74922;SDS011;64715;44.760;37.678;2023-03-23T06:00:19;18.40;;;7.55;;
74922;SDS011;64715;44.760;37.678;2023-03-23T06:01:28;20.13;;;7.43;;
74922;SDS011;64715;44.760;37.678;2023-03-23T06:02:30;20.40;;;7.35;;
74922;SDS011;64715;44.760;37.678;2023-03-23T06:03:31;20.40;;;7.30;;
74922;SDS011;64715;44.760;37.678;2023-03-23T06:04:44;18.33;;;7.75;;
74922;SDS011;64715;44.760;37.678;2023-03-23T06:06:00;21.52;;;7.70;;
74922;SDS011;64715;44.760;37.678;2023-03-23T06:07:09;17.38;;;7.70;;
74922;SDS011;64715;44.760;37.678;2023-03-23T06:08:16;18.95;;;7.50;;
74922;SDS011;64715;44.760;37.678;2023-03-23T06:09:17;18.10;;;7.60;;
74922;SDS011;64715;44.760;37.678;2023-03-23T06:10:38;18.33;;;7.35;;
74922;SDS011;64715;44.760;37.678;2023-03-23T06:11:39;22.05;;;7.55;;
74922;SDS011;64715;44.760;37.678;2023-03-23T06:13:00;18.27;;;7.20;;
74922;SDS011;64715;44.760;37.678;2023-03-23T06:14:09;19.23;;;7.50;;
74922;SDS011;64715;44.760;37.678;2023-03-23T06:15:10;19.23;;;8.00;;
74922;SDS011;64715;44.760;37.678;2023-03-23T06:16:31;21.80;;;7.25;;
74922;SDS011;64715;44.760;37.678;2023-03-23T06:17:35;19.27;;;8.32;;
74922;SDS011;64715;44.760;37.678;2023-03-23T06:18:36;17.67;;;7.75;;
74922;SDS011;64715;44.760;37.678;2023-03-23T06:19:43;18.63;;;7.90;;
74922;SDS011;64715;44.760;37.678;2023-03-23T06:20:49;20.23;;;7.78;;
74922;SDS011;64715;44.760;37.678;2023-03-23T06:22:00;18.35;;;8.43;;
74922;SDS011;64715;44.760;37.678;2023-03-23T06:23:23;20.25;;;7.95;;
74922;SDS011;64715;44.760;37.678;2023-03-23T06:24:26;23.67;;;8.38;;
74922;SDS011;64715;44.760;37.678;2023-03-23T06:25:27;21.25;;;7.90;;
74922;SDS011;64715;44.760;37.678;2023-03-23T06:26:31;23.40;;;7.90;;
74922;SDS011;64715;44.760;37.678;2023-03-23T06:27:37;16.45;;;7.88;;
74922;SDS011;64715;44.760;37.678;2023-03-23T06:28:38;18.73;;;7.70;;
74922;SDS011;64715;44.760;37.678;2023-03-23T06:29:41;21.63;;;8.18;;
74922;SDS011;64715;44.760;37.678;2023-03-23T06:30:42;20.10;;;8.10;;
74922;SDS011;64715;44.760;37.678;2023-03-23T06:31:45;24.38;;;8.60;;
74922;SDS011;64715;44.760;37.678;2023-03-23T06:32:49;19.15;;;8.45;;
74922;SDS011;64715;44.760;37.678;2023-03-23T06:33:59;19.42;;;8.63;;
74922;SDS011;64715;44.760;37.678;2023-03-23T06:34:59;21.63;;;8.37;;
74922;SDS011;64715;44.760;37.678;2023-03-23T06:36:20;21.87;;;8.37;;
74922;SDS011;64715;44.760;37.678;2023-03-23T06:37:34;20.65;;;8.23;;
74922;SDS011;64715;44.760;37.678;2023-03-23T06:38:46;24.45;;;8.68;;
74922;SDS011;64715;44.760;37.678;2023-03-23T06:39:50;24.88;;;9.02;;
74922;SDS011;64715;44.760;37.678;2023-03-23T06:40:59;26.95;;;8.15;;
74922;SDS011;64715;44.760;37.678;2023-03-23T06:42:02;20.63;;;7.90;;
74922;SDS011;64715;44.760;37.678;2023-03-23T06:43:07;20.90;;;8.55;;
74922;SDS011;64715;44.760;37.678;2023-03-23T06:44:24;18.92;;;7.65;;
74922;SDS011;64715;44.760;37.678;2023-03-23T06:45:27;20.30;;;8.95;;
74922;SDS011;64715;44.760;37.678;2023-03-23T06:46:54;17.85;;;7.60;;